»·PEaware :: N208GG KSNA-KSNA

N208GG :: KSNA-KSNA

FLIGHT INFORMATION

Flight Status: Arrived
Operator: Privately registered:
United States
More flights under this callsign
Pilot: Hunter M. (19355)
Aircraft: CESSNA 172 SKYHAWK
(C172)
More flights by this aircraft type
Origin: KSNA John Wayne-Orange Co
United States
Destination: KSNA John Wayne-Orange Co
United States
More flights between these airports :: More routes between these airports
Route: SLI
File this flight plan on PilotEdge
Remarks: practice approaches
Altitude:
(Current/Filed)
3,000ft
Speed:
(Current/Filed)
118kts
Departed: 01-Dec-19 01:50 PM
Arrived: 01-Dec-19 02:55 PM
Distance/Time
Traveled:
0nm/1:05
Distance/Time
To Go:
Arrived

Flight Plot

Page will automatically refresh every two minutes.


Map Options




Map Legend


Flown Route
Filed Route
Departure Airport
Arrival Airport
Navaid (VOR, NDB)
Fix

Horizontal Profiles

Position Reports

Time Latitude Longitude Heading Altitude Ground
Speed
01-Dec-19 13:29 33.667461 -117.870757 38 59ft 0kts
01-Dec-19 13:29 33.667462 -117.870756 38 59ft 0kts
01-Dec-19 13:30 33.667463 -117.870756 38 59ft 0kts
01-Dec-19 13:32 33.667463 -117.870755 38 59ft 0kts
01-Dec-19 13:32 33.667464 -117.870754 38 59ft 0kts
01-Dec-19 13:33 33.667465 -117.870754 38 59ft 0kts
01-Dec-19 13:34 33.667465 -117.870753 38 59ft 0kts
01-Dec-19 13:35 33.667466 -117.870753 38 59ft 0kts
01-Dec-19 13:36 33.667466 -117.870752 38 59ft 0kts
01-Dec-19 13:37 33.667467 -117.870751 38 59ft 0kts
01-Dec-19 13:38 33.667468 -117.870751 38 59ft 0kts
01-Dec-19 13:39 33.667468 -117.870750 38 59ft 0kts
01-Dec-19 13:40 33.667706 -117.871464 316 59ft 11kts
01-Dec-19 13:41 33.668748 -117.871449 43 59ft 0kts
01-Dec-19 13:42 33.672922 -117.867532 20 59ft 30kts
01-Dec-19 13:43 33.676511 -117.865564 23 59ft 0kts
01-Dec-19 13:44 33.678499 -117.864378 25 59ft 18kts
01-Dec-19 13:45 33.679548 -117.863771 351 59ft 0kts
01-Dec-19 13:46 33.679548 -117.863771 351 59ft 0kts
01-Dec-19 13:47 33.679549 -117.863771 351 59ft 0kts
01-Dec-19 13:48 33.679715 -117.864418 210 59ft 9kts
01-Dec-19 13:49 33.663458 -117.875032 218 532ft 84kts
01-Dec-19 13:50 33.649158 -117.898005 231 1353ft 89kts
01-Dec-19 13:51 33.633129 -117.922550 231 2006ft 100kts
01-Dec-19 13:52 33.615526 -117.949449 231 2515ft 99kts
01-Dec-19 13:53 33.598542 -117.975362 231 3023ft 105kts
01-Dec-19 13:54 33.579908 -118.003785 231 2995ft 106kts
01-Dec-19 13:55 33.589648 -118.016226 31 3031ft 102kts
01-Dec-19 13:56 33.614564 -117.997681 31 2999ft 106kts
01-Dec-19 13:57 33.639615 -117.979040 31 2999ft 105kts
01-Dec-19 13:58 33.664655 -117.960398 31 3000ft 105kts
01-Dec-19 13:59 33.689618 -117.941808 31 3000ft 105kts
01-Dec-19 14:00 33.714657 -117.923152 31 3000ft 105kts
01-Dec-19 14:01 33.739653 -117.904487 31 3000ft 105kts
01-Dec-19 14:02 33.764635 -117.885846 31 3000ft 105kts
01-Dec-19 14:03 33.789633 -117.867182 31 3000ft 105kts
01-Dec-19 14:04 33.814615 -117.848511 31 3000ft 105kts
01-Dec-19 14:05 33.839676 -117.829786 31 3000ft 105kts
01-Dec-19 14:06 33.864361 -117.811337 31 2987ft 100kts
01-Dec-19 14:07 33.887446 -117.794096 31 2999ft 97kts
01-Dec-19 14:08 33.888588 -117.765028 102 3006ft 97kts
01-Dec-19 14:09 33.871526 -117.748476 182 3018ft 96kts
01-Dec-19 14:10 33.847028 -117.761794 207 2999ft 97kts
01-Dec-19 14:11 33.824130 -117.776320 207 2985ft 75kts
01-Dec-19 14:12 33.806247 -117.785520 198 2859ft 71kts
01-Dec-19 14:13 33.789031 -117.796554 211 2418ft 69kts
01-Dec-19 14:14 33.772492 -117.808564 208 2000ft 69kts
01-Dec-19 14:15 33.754931 -117.818145 207 1675ft 69kts
01-Dec-19 14:16 33.738222 -117.829405 210 1359ft 68kts
01-Dec-19 14:17 33.721596 -117.840420 204 993ft 68kts
01-Dec-19 14:18 33.704509 -117.850309 207 581ft 68kts
01-Dec-19 14:19 33.687957 -117.861020 207 264ft 67kts
01-Dec-19 14:20 33.671152 -117.871830 207 551ft 74kts
01-Dec-19 14:21 33.653839 -117.888621 231 1367ft 86kts
01-Dec-19 14:22 33.638081 -117.912672 231 2018ft 100kts
01-Dec-19 14:23 33.618729 -117.942173 231 2192ft 109kts
01-Dec-19 14:24 33.600713 -117.969626 231 2731ft 101kts
01-Dec-19 14:25 33.609821 -117.982315 31 3058ft 111kts
01-Dec-19 14:26 33.637071 -117.962049 31 2985ft 109kts
01-Dec-19 14:27 33.662189 -117.943362 31 2998ft 104kts
01-Dec-19 14:28 33.686921 -117.924938 31 3000ft 104kts
01-Dec-19 14:29 33.711696 -117.906475 31 3000ft 104kts
01-Dec-19 14:30 33.736472 -117.887888 31 2999ft 104kts
01-Dec-19 14:31 33.761101 -117.869314 31 3000ft 104kts
01-Dec-19 14:32 33.785885 -117.850797 31 3000ft 104kts
01-Dec-19 14:33 33.810683 -117.832279 31 3000ft 104kts
01-Dec-19 14:34 33.835461 -117.813778 31 3000ft 104kts
01-Dec-19 14:35 33.860266 -117.795230 31 2999ft 104kts
01-Dec-19 14:36 33.884826 -117.776860 31 3003ft 104kts
01-Dec-19 14:37 33.909867 -117.758129 31 3000ft 106kts
01-Dec-19 14:38 33.935079 -117.739267 31 3000ft 106kts
01-Dec-19 14:39 33.960152 -117.720361 37 2998ft 106kts
01-Dec-19 14:40 33.943130 -117.708434 185 3013ft 106kts
01-Dec-19 14:41 33.914790 -117.717376 204 2896ft 103kts
01-Dec-19 14:42 33.889160 -117.733153 207 2900ft 103kts
01-Dec-19 14:43 33.863606 -117.749447 207 2900ft 103kts
01-Dec-19 14:44 33.838498 -117.765459 207 2906ft 91kts
01-Dec-19 14:45 33.818886 -117.777890 205 2871ft 71kts
01-Dec-19 14:46 33.801385 -117.789077 210 2727ft 73kts
01-Dec-19 14:47 33.783927 -117.800797 209 2304ft 71kts
01-Dec-19 14:48 33.766561 -117.812498 205 1843ft 71kts
01-Dec-19 14:49 33.748496 -117.822018 205 1547ft 70kts
01-Dec-19 14:50 33.731406 -117.833712 210 1226ft 70kts
01-Dec-19 14:51 33.714208 -117.844878 206 809ft 70kts
01-Dec-19 14:52 33.696783 -117.855279 209 387ft 69kts
01-Dec-19 14:53 33.679961 -117.866213 206 104ft 68kts
01-Dec-19 14:54 33.674217 -117.871038 301 59ft 10kts
01-Dec-19 14:55 33.674269 -117.871156 295 59ft 0kts
01-Dec-19 14:56 33.675809 -117.873009 323 59ft 0kts

Navigation Log

Ident Type
Flight plan parsing failed, navigation log unavailable